createdAt,value
2023-03-04T00:01:11.705Z,4.05
2023-03-04T00:03:39.694Z,7.15
2023-03-04T00:06:07.785Z,6.00
2023-03-04T00:08:35.672Z,5.03
2023-03-04T00:11:03.735Z,3.88
2023-03-04T00:13:31.439Z,6.38
2023-03-04T00:15:59.194Z,3.67
2023-03-04T00:18:28.214Z,6.20
2023-03-04T00:20:56.094Z,8.00
2023-03-04T00:23:23.776Z,10.35
2023-03-04T00:25:51.579Z,2.72
2023-03-04T00:28:19.476Z,3.67
2023-03-04T00:30:47.207Z,4.50
2023-03-04T00:33:15.775Z,3.08
2023-03-04T00:35:45.004Z,4.25
2023-03-04T00:38:12.804Z,3.72
2023-03-04T00:40:40.500Z,6.07
2023-03-04T00:43:08.246Z,4.25
2023-03-04T00:45:36.676Z,4.35
2023-03-04T00:48:04.577Z,2.88
2023-03-04T00:50:32.875Z,7.72
2023-03-04T00:53:02.720Z,4.85
2023-03-04T00:55:30.609Z,3.53
2023-03-04T00:57:58.499Z,2.63
2023-03-04T01:00:26.347Z,6.15
2023-03-04T01:02:54.081Z,2.42
2023-03-04T01:05:21.809Z,4.28
2023-03-04T01:07:49.715Z,6.95
2023-03-04T01:10:19.240Z,4.72
2023-03-04T01:12:47.041Z,4.25
2023-03-04T01:15:15.198Z,4.03
2023-03-04T01:17:43.311Z,4.07
2023-03-04T01:20:12.609Z,3.75
2023-03-04T01:22:40.458Z,4.47
2023-03-04T01:25:09.687Z,6.13
2023-03-04T01:27:38.765Z,4.32
2023-03-04T01:30:07.709Z,3.85
2023-03-04T01:32:35.430Z,5.55
2023-03-04T01:35:03.186Z,2.95
2023-03-04T01:37:33.597Z,9.88
2023-03-04T01:40:01.276Z,4.45
2023-03-04T01:42:31.688Z,3.88
2023-03-04T01:45:02.634Z,2.55
2023-03-04T01:47:32.197Z,7.20
2023-03-04T01:50:01.178Z,3.50
2023-03-04T01:52:29.206Z,5.22
2023-03-04T01:54:57.276Z,5.90
2023-03-04T01:57:26.850Z,6.47
2023-03-04T02:00:15.756Z,5.07
2023-03-04T02:02:43.406Z,4.47
2023-03-04T02:05:11.369Z,7.53
2023-03-04T02:07:39.295Z,4.43
2023-03-04T02:10:07.925Z,2.20
2023-03-04T02:12:35.628Z,3.47
2023-03-04T02:15:03.867Z,3.28
2023-03-04T02:17:34.567Z,8.93
2023-03-04T02:20:08.795Z,9.13
2023-03-04T02:22:40.103Z,4.43
2023-03-04T02:25:13.179Z,2.67
2023-03-04T02:27:42.566Z,7.50
2023-03-04T02:30:12.964Z,5.70
2023-03-04T02:32:41.094Z,9.45
2023-03-04T02:35:15.558Z,10.15
2023-03-04T02:37:43.518Z,7.00
2023-03-04T02:40:16.146Z,5.60
2023-03-04T02:42:46.541Z,5.25
2023-03-04T02:45:46.019Z,7.97
2023-03-04T02:48:14.505Z,8.20
2023-03-04T02:50:44.289Z,6.55
2023-03-04T02:53:12.246Z,6.18
2023-03-04T02:55:40.211Z,2.22
2023-03-04T02:58:09.350Z,5.72
2023-03-04T03:00:38.296Z,9.05
2023-03-04T03:03:06.680Z,4.95
2023-03-04T03:05:37.533Z,2.65
2023-03-04T03:08:06.218Z,3.38
2023-03-04T03:10:34.040Z,5.22
2023-03-04T03:13:02.906Z,2.97
2023-03-04T03:15:32.372Z,2.60
2023-03-04T03:18:00.186Z,5.38
2023-03-04T03:20:28.153Z,3.92
2023-03-04T03:22:55.834Z,7.47
2023-03-04T03:25:23.976Z,2.90
2023-03-04T03:27:54.644Z,5.82
2023-03-04T03:30:24.068Z,4.97
2023-03-04T03:32:53.390Z,2.50
2023-03-04T03:35:21.862Z,6.45
2023-03-04T03:37:50.600Z,6.30
2023-03-04T03:40:18.442Z,5.00
2023-03-04T03:42:46.067Z,4.70
2023-03-04T03:45:13.826Z,4.88
2023-03-04T03:47:41.492Z,5.85
2023-03-04T03:50:11.665Z,5.75
2023-03-04T03:52:39.402Z,9.43
2023-03-04T03:55:07.708Z,9.80
2023-03-04T03:57:35.433Z,4.97
2023-03-04T04:00:03.733Z,5.68
2023-03-04T04:02:40.328Z,4.40
2023-03-04T04:05:11.294Z,9.20
2023-03-04T04:07:39.576Z,8.82
2023-03-04T04:10:07.925Z,3.28
2023-03-04T04:12:35.809Z,8.60
2023-03-04T04:15:03.541Z,6.65
2023-03-04T04:17:31.316Z,6.03
2023-03-04T04:19:59.012Z,2.72
2023-03-04T04:22:28.040Z,7.35
2023-03-04T04:24:55.734Z,4.30
2023-03-04T04:27:23.511Z,4.50
2023-03-04T04:29:51.265Z,10.32
2023-03-04T04:32:19.069Z,6.30
2023-03-04T04:34:46.721Z,9.07
2023-03-04T04:37:14.415Z,10.55
2023-03-04T04:39:43.505Z,7.50
2023-03-04T04:42:11.650Z,12.35
2023-03-04T04:44:39.506Z,8.23
2023-03-04T04:47:07.384Z,6.13
2023-03-04T04:49:35.415Z,9.70
2023-03-04T04:52:03.302Z,9.52
2023-03-04T04:54:31.357Z,15.02
2023-03-04T04:57:00.398Z,8.95
2023-03-04T04:59:28.277Z,10.95
2023-03-04T05:01:55.892Z,13.77
2023-03-04T05:04:23.591Z,9.15
2023-03-04T05:06:51.251Z,13.55
2023-03-04T05:09:19.865Z,10.10
2023-03-04T05:11:47.727Z,15.07
2023-03-04T05:14:17.047Z,16.30
2023-03-04T05:16:44.962Z,13.95
2023-03-04T05:19:13.196Z,12.65
2023-03-04T05:21:40.883Z,14.70
2023-03-04T05:24:08.801Z,14.93
2023-03-04T05:26:36.920Z,13.20
2023-03-04T05:29:05.640Z,11.15
2023-03-04T05:31:34.888Z,21.38
2023-03-04T05:34:02.656Z,11.48
2023-03-04T05:36:30.362Z,10.93
2023-03-04T05:38:58.262Z,10.93
2023-03-04T05:41:26.363Z,18.55
2023-03-04T05:43:54.428Z,14.40
2023-03-04T05:46:25.267Z,10.43
2023-03-04T05:48:54.794Z,16.25
2023-03-04T05:51:23.164Z,16.65
2023-03-04T05:53:51.464Z,10.52
2023-03-04T05:56:21.382Z,15.25
2023-03-04T05:58:49.088Z,11.15
2023-03-04T06:01:17.364Z,14.27
2023-03-04T06:03:45.228Z,9.68
2023-03-04T06:06:14.250Z,13.20
2023-03-04T06:08:41.903Z,12.65
2023-03-04T06:11:09.712Z,11.68
2023-03-04T06:13:38.097Z,8.05
2023-03-04T06:16:06.591Z,13.98
2023-03-04T06:18:34.354Z,12.98
2023-03-04T06:21:03.461Z,9.85
2023-03-04T06:23:32.608Z,10.18
2023-03-04T06:26:01.697Z,9.85
2023-03-04T06:28:29.724Z,10.07
2023-03-04T06:30:58.030Z,11.98
2023-03-04T06:33:26.208Z,9.10
2023-03-04T06:35:55.739Z,10.77
2023-03-04T06:38:23.632Z,10.57
2023-03-04T06:40:54.781Z,9.63
2023-03-04T06:43:23.813Z,8.55
2023-03-04T06:45:51.611Z,8.55
2023-03-04T06:48:19.393Z,10.88
2023-03-04T06:50:47.042Z,10.88
2023-03-04T06:53:14.927Z,10.40
2023-03-04T06:55:42.761Z,6.90
2023-03-04T06:58:12.286Z,13.65
2023-03-04T07:00:39.982Z,10.63
2023-03-04T07:03:07.948Z,6.15
2023-03-04T07:05:35.598Z,9.02
2023-03-04T07:08:03.376Z,12.82
2023-03-04T07:10:31.137Z,6.88
2023-03-04T07:12:58.878Z,9.50
2023-03-04T07:15:28.949Z,7.60
2023-03-04T07:17:56.621Z,11.77
2023-03-04T07:20:25.080Z,11.75
2023-03-04T07:22:52.754Z,12.30
2023-03-04T07:25:20.417Z,13.35
2023-03-04T07:27:48.098Z,11.77
2023-03-04T07:30:16.498Z,11.80
2023-03-04T07:32:45.742Z,12.27
2023-03-04T07:35:13.483Z,16.77
2023-03-04T07:37:41.216Z,12.80
2023-03-04T07:40:10.668Z,13.75
2023-03-04T07:42:38.314Z,14.50
2023-03-04T07:45:11.962Z,17.52
2023-03-04T07:47:39.762Z,12.77
2023-03-04T07:50:10.598Z,14.18
2023-03-04T07:52:39.263Z,16.42
2023-03-04T07:55:08.216Z,12.50
2023-03-04T07:57:35.937Z,16.30
2023-03-04T08:00:03.623Z,12.20
2023-03-04T08:02:40.692Z,19.90
2023-03-04T08:05:10.570Z,16.23
2023-03-04T08:07:38.254Z,18.25
2023-03-04T08:10:07.910Z,11.13
2023-03-04T08:12:35.940Z,9.88
2023-03-04T08:15:04.486Z,15.93
2023-03-04T08:17:32.142Z,14.63
2023-03-04T08:20:00.113Z,15.00
2023-03-04T08:22:29.172Z,20.77
2023-03-04T08:24:56.857Z,16.35
2023-03-04T08:27:24.599Z,12.55
2023-03-04T08:29:52.269Z,16.00
2023-03-04T08:32:20.105Z,16.52
2023-03-04T08:34:48.239Z,12.88
2023-03-04T08:37:15.876Z,12.07
2023-03-04T08:39:44.858Z,15.63
2023-03-04T08:42:12.480Z,17.13
2023-03-04T08:44:40.126Z,8.45
2023-03-04T08:47:10.187Z,15.13
2023-03-04T08:49:38.329Z,12.32
2023-03-04T08:52:06.249Z,18.55
2023-03-04T08:54:33.912Z,16.88
2023-03-04T08:57:03.664Z,12.90
2023-03-04T08:59:31.319Z,17.65
2023-03-04T09:01:59.007Z,11.40
2023-03-04T09:04:26.712Z,17.02
2023-03-04T09:06:54.570Z,11.23
2023-03-04T09:09:22.601Z,12.25
2023-03-04T09:11:50.322Z,10.55
2023-03-04T09:14:19.319Z,12.55
2023-03-04T09:16:47.105Z,14.38
2023-03-04T09:19:14.848Z,19.98
2023-03-04T09:21:42.534Z,11.40
2023-03-04T09:24:10.243Z,9.52
2023-03-04T09:26:37.855Z,10.77
2023-03-04T09:29:06.480Z,12.05
2023-03-04T09:31:36.142Z,14.70
2023-03-04T09:34:04.116Z,8.55
2023-03-04T09:36:32.066Z,15.85
2023-03-04T09:39:01.420Z,14.45
2023-03-04T09:41:37.734Z,10.57
2023-03-04T09:44:11.330Z,14.23
2023-03-04T09:46:42.723Z,12.60
2023-03-04T09:49:12.015Z,8.85
2023-03-04T09:51:46.618Z,9.32
2023-03-04T09:54:19.661Z,18.38
2023-03-04T09:56:47.346Z,10.07
2023-03-04T09:59:18.707Z,21.80
2023-03-04T10:01:50.832Z,21.90
2023-03-04T10:04:23.388Z,21.13
2023-03-04T10:06:54.385Z,15.88
2023-03-04T10:09:25.662Z,18.67
2023-03-04T10:12:02.098Z,13.68
2023-03-04T10:14:36.750Z,20.27
2023-03-04T10:17:10.243Z,17.52
2023-03-04T10:19:53.658Z,14.35
2023-03-04T10:22:24.797Z,13.15
2023-03-04T10:24:54.424Z,19.00
2023-03-04T10:27:23.659Z,13.93
2023-03-04T10:29:51.521Z,11.52
2023-03-04T10:32:22.014Z,15.82
2023-03-04T10:34:49.732Z,15.73
2023-03-04T10:37:17.572Z,10.15
2023-03-04T10:39:47.079Z,12.32
2023-03-04T10:42:28.766Z,12.88
2023-03-04T10:44:58.077Z,8.45
2023-03-04T10:47:28.693Z,14.52
2023-03-04T10:49:58.531Z,17.25
2023-03-04T10:52:30.476Z,16.38
2023-03-04T10:54:59.933Z,10.85
2023-03-04T10:57:34.434Z,18.60
2023-03-04T11:00:03.345Z,13.80
2023-03-04T11:02:34.683Z,18.40
2023-03-04T11:05:18.453Z,11.27
2023-03-04T11:07:55.553Z,5.20
2023-03-04T11:10:26.027Z,15.55
2023-03-04T11:12:58.090Z,9.40
2023-03-04T11:15:28.471Z,15.15
2023-03-04T11:18:00.551Z,9.18
2023-03-04T11:20:33.363Z,14.48
2023-03-04T11:23:05.295Z,15.90
2023-03-04T11:25:35.251Z,10.70
2023-03-04T11:28:04.713Z,11.60
2023-03-04T11:30:42.064Z,10.27
2023-03-04T11:33:16.547Z,8.32
2023-03-04T11:35:53.444Z,7.97
2023-03-04T11:38:22.358Z,13.07
2023-03-04T11:40:53.872Z,9.05
2023-03-04T11:43:26.770Z,11.32
2023-03-04T11:46:16.292Z,6.57
2023-03-04T11:48:52.256Z,9.63
2023-03-04T11:51:23.398Z,9.75
2023-03-04T11:53:59.085Z,13.13
2023-03-04T11:56:34.127Z,8.43
2023-03-04T11:59:38.328Z,9.65
2023-03-04T12:02:13.704Z,13.02
2023-03-04T12:05:13.862Z,10.30
2023-03-04T12:07:49.451Z,8.13
2023-03-04T12:10:23.757Z,14.10
2023-03-04T12:13:04.884Z,11.48
2023-03-04T12:15:38.951Z,10.57
2023-03-04T12:18:19.408Z,15.07
2023-03-04T12:20:57.935Z,15.70
2023-03-04T12:23:44.148Z,8.50
2023-03-04T12:26:22.167Z,5.78
2023-03-04T12:28:55.535Z,12.10
2023-03-04T12:31:34.107Z,8.63
2023-03-04T12:34:33.308Z,11.80
2023-03-04T12:37:24.169Z,6.70
2023-03-04T12:40:06.005Z,7.30
2023-03-04T12:42:39.671Z,9.15
2023-03-04T12:45:17.949Z,11.80
2023-03-04T12:47:53.418Z,6.53
2023-03-04T12:50:31.391Z,10.40
2023-03-04T12:53:05.029Z,17.98
2023-03-04T12:55:38.440Z,11.18
2023-03-04T12:58:07.262Z,14.93
2023-03-04T13:00:43.379Z,9.18
2023-03-04T13:03:15.903Z,11.18
2023-03-04T13:05:53.676Z,10.40
2023-03-04T13:08:31.127Z,11.10
2023-03-04T13:11:02.650Z,9.27
2023-03-04T13:13:40.338Z,12.63
2023-03-04T13:16:32.894Z,7.03
2023-03-04T13:19:00.656Z,16.20
2023-03-04T13:21:31.462Z,5.38
2023-03-04T13:24:02.974Z,9.02
2023-03-04T13:26:32.851Z,8.38
2023-03-04T13:29:32.046Z,7.13
2023-03-04T13:32:01.701Z,7.40
2023-03-04T13:34:50.331Z,7.53
2023-03-04T13:37:32.425Z,13.57
2023-03-04T13:40:35.666Z,11.45
2023-03-04T13:43:40.534Z,13.43
2023-03-04T13:46:30.810Z,9.55
2023-03-04T13:49:04.286Z,10.82
2023-03-04T13:51:33.468Z,6.63
2023-03-04T13:54:13.027Z,6.82
2023-03-04T13:56:42.768Z,11.07
2023-03-04T13:59:18.411Z,7.43
2023-03-04T14:01:55.451Z,5.40
2023-03-04T14:04:26.915Z,7.25
2023-03-04T14:06:58.093Z,9.05
2023-03-04T14:09:28.259Z,8.32
2023-03-04T14:11:58.462Z,12.00
2023-03-04T14:14:28.466Z,11.43
2023-03-04T14:16:58.185Z,11.60
2023-03-04T14:19:28.051Z,16.15
2023-03-04T14:21:56.541Z,13.13
2023-03-04T14:24:25.376Z,10.70
2023-03-04T14:27:12.348Z,6.47
2023-03-04T14:29:40.110Z,12.85
2023-03-04T14:32:08.701Z,6.15
2023-03-04T14:34:38.525Z,10.00
2023-03-04T14:37:20.984Z,9.55
2023-03-04T14:39:50.369Z,11.70
2023-03-04T14:42:20.780Z,8.15
2023-03-04T14:44:49.885Z,7.10
2023-03-04T14:47:21.128Z,10.88
2023-03-04T14:49:49.290Z,10.57
2023-03-04T14:52:35.049Z,5.30
2023-03-04T14:55:10.842Z,6.85
2023-03-04T14:57:40.373Z,6.55
2023-03-04T15:00:24.922Z,10.65
2023-03-04T15:02:53.471Z,10.40
2023-03-04T15:05:26.363Z,31.48
2023-03-04T15:07:56.038Z,16.38
2023-03-04T15:10:26.046Z,10.60
2023-03-04T15:12:56.383Z,13.02
2023-03-04T15:15:37.323Z,8.98
2023-03-04T15:18:16.855Z,9.55
2023-03-04T15:20:54.085Z,8.13
2023-03-04T15:23:21.891Z,8.15
2023-03-04T15:25:52.737Z,8.98
2023-03-04T15:28:22.469Z,10.27
2023-03-04T15:30:50.694Z,7.90
2023-03-04T15:33:21.071Z,9.82
2023-03-04T15:35:54.170Z,13.65
2023-03-04T15:38:22.359Z,6.57
2023-03-04T15:40:52.178Z,11.88
2023-03-04T15:43:23.921Z,10.10
2023-03-04T15:45:52.437Z,8.00
2023-03-04T15:48:20.706Z,12.45
2023-03-04T15:50:49.859Z,9.45
2023-03-04T15:53:20.492Z,12.60
2023-03-04T15:55:48.350Z,10.13
2023-03-04T15:58:16.678Z,9.43
2023-03-04T16:00:46.340Z,11.60
2023-03-04T16:03:17.265Z,8.25
2023-03-04T16:05:46.567Z,7.80
2023-03-04T16:08:15.696Z,5.97
2023-03-04T16:10:44.931Z,7.93
2023-03-04T16:13:15.294Z,8.65
2023-03-04T16:15:43.895Z,5.60
2023-03-04T16:18:13.616Z,8.57
2023-03-04T16:20:43.546Z,10.35
2023-03-04T16:23:14.178Z,7.13
2023-03-04T16:25:44.307Z,9.30
2023-03-04T16:28:12.793Z,6.88
2023-03-04T16:30:40.841Z,12.00
2023-03-04T16:33:08.913Z,12.60
2023-03-04T16:35:38.399Z,9.50
2023-03-04T16:38:07.268Z,3.15
2023-03-04T16:40:35.064Z,4.68
2023-03-04T16:43:03.620Z,7.30
2023-03-04T16:45:31.611Z,8.15
2023-03-04T16:47:59.268Z,8.82
2023-03-04T16:50:28.250Z,6.28
2023-03-04T16:52:57.599Z,10.70
2023-03-04T16:55:27.260Z,7.38
2023-03-04T16:57:57.689Z,6.28
2023-03-04T17:00:26.863Z,5.75
2023-03-04T17:02:57.894Z,8.35
2023-03-04T17:05:27.397Z,4.05
2023-03-04T17:07:55.078Z,8.20
2023-03-04T17:10:25.028Z,7.63
2023-03-04T17:12:52.897Z,8.45
2023-03-04T17:15:20.669Z,10.68
2023-03-04T17:17:48.469Z,5.68
2023-03-04T17:20:17.976Z,5.70
2023-03-04T17:22:45.870Z,8.25
2023-03-04T17:25:14.910Z,4.25
2023-03-04T17:27:44.139Z,5.05
2023-03-04T17:30:13.789Z,10.38
2023-03-04T17:32:42.081Z,6.43
2023-03-04T17:35:11.032Z,9.07
2023-03-04T17:37:39.017Z,4.55
2023-03-04T17:40:08.592Z,5.97
2023-03-04T17:42:36.298Z,4.20
2023-03-04T17:45:06.044Z,5.35
2023-03-04T17:47:36.099Z,4.75
2023-03-04T17:50:04.365Z,8.60
2023-03-04T17:52:32.047Z,10.30
2023-03-04T17:54:59.819Z,8.88
2023-03-04T17:57:27.652Z,6.30
2023-03-04T17:59:56.109Z,4.20
2023-03-04T18:02:25.447Z,5.65
2023-03-04T18:04:53.123Z,5.93
2023-03-04T18:07:20.832Z,7.35
2023-03-04T18:09:48.538Z,8.40
2023-03-04T18:12:16.774Z,6.38
2023-03-04T18:14:44.703Z,11.18
2023-03-04T18:17:12.405Z,7.43
2023-03-04T18:19:41.407Z,6.75
2023-03-04T18:22:09.708Z,12.23
2023-03-04T18:24:39.596Z,6.93
2023-03-04T18:27:07.775Z,5.95
2023-03-04T18:29:35.643Z,3.92
2023-03-04T18:32:03.504Z,7.22
2023-03-04T18:34:31.263Z,7.00
2023-03-04T18:37:00.266Z,7.78
2023-03-04T18:39:28.179Z,7.78
2023-03-04T18:41:56.201Z,6.05
2023-03-04T18:44:23.842Z,6.47
2023-03-04T18:46:53.415Z,6.57
2023-03-04T18:49:21.237Z,4.80
2023-03-04T18:51:48.961Z,9.68
2023-03-04T18:54:18.282Z,7.95
2023-03-04T18:56:47.922Z,6.67
2023-03-04T18:59:17.974Z,6.20
2023-03-04T19:01:46.517Z,8.68
2023-03-04T19:04:15.410Z,7.13
2023-03-04T19:06:43.205Z,6.70
2023-03-04T19:09:11.033Z,6.47
2023-03-04T19:11:40.014Z,4.70
2023-03-04T19:14:07.718Z,9.93
2023-03-04T19:16:35.765Z,5.15
2023-03-04T19:19:04.378Z,11.63
2023-03-04T19:21:33.110Z,6.37
2023-03-04T19:24:00.782Z,7.50
2023-03-04T19:26:28.516Z,6.20
2023-03-04T19:28:57.591Z,8.43
2023-03-04T19:31:25.670Z,8.77
2023-03-04T19:33:53.435Z,6.18
2023-03-04T19:36:21.098Z,4.90
2023-03-04T19:38:49.527Z,5.20
2023-03-04T19:41:18.001Z,6.37
2023-03-04T19:43:45.940Z,6.90
2023-03-04T19:46:15.098Z,6.50
2023-03-04T19:48:44.937Z,9.10
2023-03-04T19:51:16.862Z,7.63
2023-03-04T19:53:44.721Z,6.23
2023-03-04T19:56:12.695Z,4.50
2023-03-04T19:58:40.450Z,4.50
2023-03-04T20:01:08.183Z,4.27
2023-03-04T20:03:37.752Z,8.87
2023-03-04T20:06:07.442Z,5.03
2023-03-04T20:08:38.258Z,4.80
2023-03-04T20:11:07.964Z,4.90
2023-03-04T20:13:35.744Z,3.50
2023-03-04T20:16:04.043Z,3.87
2023-03-04T20:18:31.703Z,10.30
2023-03-04T20:21:00.940Z,3.93
2023-03-04T20:23:29.354Z,7.03
2023-03-04T20:25:57.519Z,9.63
2023-03-04T20:28:25.640Z,5.37
2023-03-04T20:30:54.110Z,4.83
2023-03-04T20:33:22.235Z,5.57
2023-03-04T20:35:49.978Z,6.73
2023-03-04T20:38:18.979Z,5.40
2023-03-04T20:40:46.632Z,6.27
2023-03-04T20:43:14.328Z,4.40
2023-03-04T20:45:42.058Z,9.27
2023-03-04T20:48:09.914Z,5.47
2023-03-04T20:50:37.523Z,3.50
2023-03-04T20:53:05.401Z,5.80
2023-03-04T20:55:34.765Z,6.03
2023-03-04T20:58:02.399Z,4.70
2023-03-04T21:00:30.842Z,4.10
2023-03-04T21:02:58.519Z,3.90
2023-03-04T21:05:26.130Z,3.37
2023-03-04T21:07:55.531Z,2.80
2023-03-04T21:10:23.761Z,5.03
2023-03-04T21:12:52.766Z,6.00
2023-03-04T21:15:20.573Z,6.72
2023-03-04T21:17:49.621Z,5.20
2023-03-04T21:20:17.395Z,4.60
2023-03-04T21:22:45.308Z,5.20
2023-03-04T21:25:13.052Z,3.45
2023-03-04T21:27:42.635Z,4.77
2023-03-04T21:30:13.074Z,5.43
2023-03-04T21:32:40.982Z,3.85
2023-03-04T21:35:14.666Z,6.07
2023-03-04T21:37:42.587Z,4.45
2023-03-04T21:40:11.576Z,4.13
2023-03-04T21:42:39.275Z,5.93
2023-03-04T21:45:08.617Z,5.67
2023-03-04T21:47:37.583Z,5.47
2023-03-04T21:50:06.060Z,3.53
2023-03-04T21:52:33.737Z,6.20
2023-03-04T21:55:01.475Z,9.10
2023-03-04T21:57:29.210Z,7.70
2023-03-04T21:59:56.826Z,3.97
2023-03-04T22:02:24.586Z,7.07
2023-03-04T22:04:54.005Z,5.07
2023-03-04T22:07:21.720Z,7.93
2023-03-04T22:09:49.387Z,5.10
2023-03-04T22:12:19.464Z,6.55
2023-03-04T22:14:47.553Z,4.40
2023-03-04T22:17:15.361Z,9.55
2023-03-04T22:19:43.129Z,4.55
2023-03-04T22:22:13.202Z,4.68
2023-03-04T22:24:40.910Z,4.13
2023-03-04T22:27:08.573Z,5.50
2023-03-04T22:29:36.179Z,4.03
2023-03-04T22:32:04.277Z,4.43
2023-03-04T22:34:32.205Z,1.77
2023-03-04T22:36:59.889Z,5.00
2023-03-04T22:39:28.946Z,5.13
2023-03-04T22:41:56.661Z,5.20
2023-03-04T22:44:24.291Z,3.80
2023-03-04T22:46:52.472Z,4.57
2023-03-04T22:49:20.138Z,5.33
2023-03-04T22:51:47.800Z,4.07
2023-03-04T22:54:17.238Z,3.20
2023-03-04T22:56:46.504Z,7.70
2023-03-04T22:59:14.496Z,3.67
2023-03-04T23:01:42.501Z,4.80
2023-03-04T23:04:10.259Z,3.93
2023-03-04T23:06:37.965Z,4.30
2023-03-04T23:09:05.872Z,4.57
2023-03-04T23:11:36.180Z,6.80
2023-03-04T23:14:07.094Z,7.47
2023-03-04T23:16:37.317Z,4.45
2023-03-04T23:19:05.384Z,4.93
2023-03-04T23:21:33.792Z,5.80
2023-03-04T23:24:03.012Z,4.67
2023-03-04T23:26:33.581Z,3.97
2023-03-04T23:29:02.303Z,5.33
2023-03-04T23:31:32.777Z,5.33
2023-03-04T23:34:01.034Z,4.22
2023-03-04T23:36:30.569Z,5.95
2023-03-04T23:38:58.826Z,4.37
2023-03-04T23:41:31.699Z,5.07
2023-03-04T23:44:00.099Z,2.47
2023-03-04T23:46:28.817Z,4.87
2023-03-04T23:48:57.926Z,4.83
2023-03-04T23:51:28.446Z,4.63
2023-03-04T23:53:57.288Z,5.73
2023-03-04T23:56:27.161Z,5.65
2023-03-04T23:58:55.269Z,7.25
